Havre City County Airport Havre US
ICAO: KHVR
IATA: HVR
Category: Medium
Scheduled Services: No

Elevation: 2591 ft
TransAlt. 18000 ft.

Airport Communications:
ASOS:135.225
GREAT FALLS RDO:123.65
CTAF/UNICOM:122.8

KHVR Zoom In..

If you have problems with the map follow the link
https://www.worldairports.se/pages/airport.php?
ICAO=KHVR

Runways:

(A) RW 03 length 3699 ft width 60 ft
---- / hdg 32

(B) RW 08 length 5205 ft width 100 ft
---- / hdg 77

(C) RW 21 length 3699 ft width 60 ft
---- / hdg 212

(D) RW 26 length 5205 ft width 100 ft
---- / hdg 257

Location; KHVR
Day. 21 / Time. 04.53 Zulu
* Altimeter: 29.87
* Temperature: -09° c. -15.8°f.
* Wind from: 260° Speed 04 kn.
Dewpoint: -13° c.
Visibility: 10 Statute Miles.
Clouds: Clear (automated report).

KHVR 210453Z AUTO 26004KT 10SM CLR M09/M13 A2987 RMK AO2 SLP166 T10941128


Wind From 260°
Speed 04 kn.

 
 
jpsmedia worldairports.se 2020   terms of use